This is the latest recevied weather packets stored in our database for station/object SPRFLD. If no packets are shown the sender has not sent any weather packets the latest 10 day(s).
| Time | Temp. | Humidity | Pressure | Rain* | Wind** | Luminosity | Snow |
|---|---|---|---|---|---|---|---|
| 1777504717 | 20° C | 47% | 1021.1 hPa | 0 mm | - | - | - |
| 1777502334 | 19.44° C | 49% | 1021.5 hPa | 0 mm | - | - | - |
| 1777501687 | 18.89° C | 50% | 1021.7 hPa | 0 mm | - | - | - |
| 1777498711 | 18.33° C | 49% | 1022 hPa | 0 mm | - | - | - |
| 1777481309 | 6.67° C | 86% | 1023.3 hPa | 0 mm | - | - | - |
| 1777479522 | 6.11° C | 87% | 1023.2 hPa | 0 mm | - | - | - |
| 1777478299 | 5.56° C | 88% | 1023.3 hPa | 0 mm | - | - | - |
| 1777473482 | 4.44° C | 91% | 1023.5 hPa | 0 mm | - | - | - |
| 1777470503 | 4.44° C | 91% | 1023.4 hPa | 0 mm | - | - | - |
| 1777456088 | 5.56° C | 83% | 1023.2 hPa | 0 mm | - | - | - |
| 1777450700 | 6.11° C | 79% | 1023.3 hPa | 0 mm | - | - | - |
| 1777449498 | 6.67° C | 78% | 1023.4 hPa | 0 mm | - | - | - |
| 1777441700 | 8.33° C | 71% | 1023.1 hPa | 0 mm | - | - | - |
| 1777440497 | 8.89° C | 70% | 1023.1 hPa | 0 mm | - | - | - |
| 1777438089 | 8.89° C | 69% | 1023.1 hPa | 0 mm | - | - | - |
| 1777437486 | 9.44° C | 68% | 1023 hPa | 0 mm | - | - | - |
| 1777436283 | 9.44° C | 67% | 1022.8 hPa | 0 mm | - | - | - |
| 1777433902 | 10° C | 63% | 1022.5 hPa | 0 mm | - | - | - |
| 1777433301 | 10.56° C | 62% | 1022.6 hPa | 0 mm | - | - | - |
| 1777427908 | 13.33° C | 53% | 1022.4 hPa | 0 mm | - | - | - |
| 1777426122 | 13.89° C | 53% | 1022.3 hPa | 0 mm | - | - | - |
| 1777424298 | 15.56° C | 49% | 1022.3 hPa | 0 mm | - | - | - |
| 1777423095 | 17.22° C | 47% | 1022.2 hPa | 0 mm | - | - | - |
| 1777421890 | 17.22° C | 47% | 1022.3 hPa | 0 mm | - | - | - |
| 1777417120 | 16.11° C | 52% | 1022.7 hPa | 0 mm | - | - | - |
* Rain latest hour (hover to see other rain measurements)
** Current wind speed in m/s (hover to see current wind gust speed)